• Join FlightAware (Why Join?)
  • Login
  • US Flag 
05:58PM EDT


 

Airport Tracker/Info


-or-


 

Live Flight TrackerFlight Track Log ✈ TAM3910 ✈ 23-Jan-2014 ✈ SBSP / CGH - SBRJ / SDU

Flight Track Log - Related Links

Times and Time Zones

All times are in EST time to prevent confusion due to time zone crossing. See the TAM3910 flight status page for this flight to view local times or setup timezone preferences in your user account.

Time Position Orientation Groundspeed Altitude Reporting Facility
EST Latitude Longitude Course Direction KTS MPH feet Rate Location/Type
06:02AM -23.2589 -44.8105 78° East  Level Estimated
06:03AM -23.2389 -44.7136 77° East  Level Estimated
06:04AM -23.2189 -44.6169 77° East  Level Estimated
06:05AM -23.1989 -44.5201 77° East  Level Estimated
06:06AM -23.1787 -44.4234 77° East  Level Estimated
06:07AM -23.1585 -44.3267 77° East  Level Estimated
06:08AM -23.1383 -44.2300 77° East  Level Estimated
06:09AM -23.1180 -44.1334 77° East  Level Estimated
06:10AM -23.0976 -44.0368 77° East  Level Estimated
06:11AM -23.0772 -43.9402 77° East  Level Estimated
06:12AM -23.0567 -43.8436 77° East  Level Estimated
06:13AM -23.0361 -43.7471 77° East  Level Estimated
06:14AM -23.0155 -43.6506 77° East  Level Estimated
06:15AM -22.9949 -43.5541 77° East  Level Estimated
06:16AM -22.9742 -43.4577 77° East  Level Estimated
06:17AM -22.9534 -43.3613 77° East  Level Estimated
06:18AM -22.9325 -43.2649 77° East  Level Estimated
06:19AM -22.9116 -43.1686 77° East  Level Estimated
06:20AM -22.9105 -43.1631 77° East  Level Estimated
06:21AM -22.9105 -43.1631 250° West  Level Estimated
06:22AM -22.9105 -43.1631 250° West  Level Estimated
06:23AM -22.9105 -43.1631 250° West  Level Estimated
06:24AM -22.9105 -43.1631 250° West  Level Estimated
06:25AM -22.9105 -43.1631 250° West  Level Estimated
06:26AM -22.9105 -43.1631 250° West  Level Estimated
06:27AM -22.9105 -43.1631 250° West  Level Estimated
06:28AM -22.9105 -43.1631 250° West  Level Estimated
06:29AM -22.9105 -43.1631 250° West  Level Estimated
06:30AM -22.9105 -43.1631 250° West  Level Estimated
06:31AM -22.9105 -43.1631 250° West  Level Estimated
06:32AM -22.9105 -43.1631 250° West  Level Estimated
06:33AM -22.9105 -43.1631 250° West  Level Estimated